Nearby METAR Reports

 

KBMG - Bloomington, Indiana, USA
Distance from station: SSE 11mi, 18km
Updated: Sat, 17-Aug-2019 8:53pm EDT
Clear
Clear
 Wind from calm
Wind: Calm
Temperature: 75°F , 24°C
Dew Point: 73°F , 23°C
Humidity: 94%
Barometer: 29.92 inHg , 1013.2 hPa
Clouds: Clear
Visibility: 10 miles , 16 km
2019/08/18 00:53 KBMG 180053Z 00000KT 10SM CLR 24/23 A2992 RMK AO2 SLP125 T02390233
KGPC - Greencastle, Indiana, USA
Distance from station: NNW 24mi, 39km
Updated: Sat, 17-Aug-2019 8:35pm EDT
Clear
Clear
 Wind from calm
Wind: Calm
Temperature: 72°F , 22°C
Dew Point: 70°F , 21°C
Humidity: 94%
Barometer: 29.92 inHg , 1013.2 hPa
Clouds: Clear
Visibility: 7 miles , 11 km
2019/08/18 00:35 KGPC 180035Z AUTO 00000KT 7SM CLR 22/21 A2992 RMK AO2
 
KHUF - Terre Haute, Indiana, USA
Distance from station: WNW 34mi, 54km
Updated: Sat, 17-Aug-2019 8:53pm EDT
Clear
Clear
 Wind from calm
Wind: Calm
Temperature: 75°F , 24°C
Dew Point: 72°F , 22°C
Humidity: 89%
Barometer: 29.90 inHg , 1012.5 hPa
Clouds: Clear
Visibility: 10 miles , 16 km
2019/08/18 00:53 KHUF 180053Z 00000KT 10SM CLR 24/22 A2990 RMK AO2 SLP119 T02390222
KIND - Indianapolis, Indiana, USA
Distance from station: NE 36mi, 58km
Updated: Sat, 17-Aug-2019 8:54pm EDT
Mostly cloudy
Mostly cloudy
 Wind from S
Wind: S 6 mph , 9 km/h
Temperature: 77°F , 25°C
Dew Point: 70°F , 21°C
Humidity: 79%
Barometer: 29.92 inHg , 1013.2 hPa
Clouds: Mostly cloudy
Visibility: 10 miles , 16 km
Cloud details: Partly cloudy 20000 ft
Mostly cloudy 25000 ft
2019/08/18 00:54 KIND 180054Z 18005KT 10SM SCT200 BKN250 25/21 A2992 RMK AO2 SLP124 T02500206 $
 
KHFY - Indianapolis, Indiana, USA
Distance from station: NE 40mi, 65km
Updated: Sat, 17-Aug-2019 7:35pm EDT
NOT Current
Clear
Clear
 Wind from SW
Wind: SW 5 mph , 7 km/h
Temperature: 79°F , 26°C
Dew Point: 70°F , 21°C
Humidity: 74%
Barometer: 29.94 inHg , 1013.9 hPa
Clouds: Clear
Visibility: 10 miles , 16 km
2019/08/17 23:35 KHFY 172335Z AUTO 22004KT 10SM CLR 26/21 A2994 RMK AO2 T02640205
KBAK - Columbus/Balkala, Indiana, USA
Distance from station: E 43mi, 69km
Updated: Sat, 17-Aug-2019 8:45pm EDT
Clear
Clear
 Wind from calm
Wind: Calm
Temperature: 79°F , 26°C
Dew Point: 68°F , 20°C
Humidity: 70%
Barometer: 29.92 inHg , 1013.2 hPa
Clouds: Clear
Visibility: 10 miles , 16 km
2019/08/18 00:45 KBAK 180045Z 00000KT 10SM SKC 26/20 A2992
 
KEYE - Indianapolis, Indiana, USA
Distance from station: NNE 43mi, 69km
Updated: Sat, 17-Aug-2019 8:53pm EDT
Clear
Clear
 Wind from calm
Wind: Calm
Temperature: 75°F , 24°C
Dew Point: 70°F , 21°C
Humidity: 83%
Barometer: 29.91 inHg , 1012.9 hPa
Clouds: Clear
Visibility: 10 miles , 16 km
2019/08/18 00:53 KEYE 180053Z AUTO 00000KT 10SM CLR 24/21 A2991 RMK AO2 SLP123 T02440206
KDCY - Daviess County, Indiana, USA
Distance from station: SSW 47mi, 76km
Updated: Sat, 17-Aug-2019 8:35pm EDT
Clear
Clear
 Wind from calm
Wind: Calm
Temperature: 79°F , 26°C
Dew Point: 73°F , 23°C
Humidity: 84%
Barometer: 29.89 inHg , 1012.2 hPa
Clouds: Clear
Visibility: 10 miles , 16 km
2019/08/18 00:35 KDCY 180035Z AUTO 00000KT 10SM CLR 26/23 A2989 RMK AO2 LTG DSNT W T02560227
 
KCFJ - Crawfordsville, Indiana, USA
Distance from station: NNW 49mi, 78km
Updated: Sat, 17-Aug-2019 8:55pm EDT
Clear
Clear
 Wind from calm
Wind: Calm
Temperature: 72°F , 22°C
Dew Point: 72°F , 22°C
Humidity: 100%
Barometer: 29.92 inHg , 1013.2 hPa
Clouds: Clear
Visibility: 10 miles , 16 km
2019/08/18 00:55 KCFJ 180055Z AUTO 00000KT 10SM CLR 22/22 A2992 RMK AO2 T02170217